sensor_id;sensor_type;location;lat;lon;timestamp;temperature;humidity
78731;SHT31;68055;51.978;5.658;2023-04-28T00:01:35;13.8;35.6
78731;SHT31;68055;51.978;5.658;2023-04-28T00:04:05;13.8;35.8
78731;SHT31;68055;51.978;5.658;2023-04-28T00:06:34;13.8;36.0
78731;SHT31;68055;51.978;5.658;2023-04-28T00:09:04;13.8;35.9
78731;SHT31;68055;51.978;5.658;2023-04-28T00:11:35;13.7;35.9
78731;SHT31;68055;51.978;5.658;2023-04-28T00:14:05;13.7;36.1
78731;SHT31;68055;51.978;5.658;2023-04-28T00:16:35;13.7;36.5
78731;SHT31;68055;51.978;5.658;2023-04-28T00:19:04;13.7;36.6
78731;SHT31;68055;51.978;5.658;2023-04-28T00:21:34;13.7;36.6
78731;SHT31;68055;51.978;5.658;2023-04-28T00:24:04;13.6;36.7
78731;SHT31;68055;51.978;5.658;2023-04-28T00:26:34;13.6;36.7
78731;SHT31;68055;51.978;5.658;2023-04-28T00:29:03;13.6;36.8
78731;SHT31;68055;51.978;5.658;2023-04-28T00:31:35;13.6;36.8
78731;SHT31;68055;51.978;5.658;2023-04-28T00:34:05;13.6;36.9
78731;SHT31;68055;51.978;5.658;2023-04-28T00:36:34;13.6;36.9
78731;SHT31;68055;51.978;5.658;2023-04-28T00:39:04;13.6;36.7
78731;SHT31;68055;51.978;5.658;2023-04-28T00:41:35;13.6;36.8
78731;SHT31;68055;51.978;5.658;2023-04-28T00:44:05;13.6;37.0
78731;SHT31;68055;51.978;5.658;2023-04-28T00:46:34;13.6;37.0
78731;SHT31;68055;51.978;5.658;2023-04-28T00:49:04;13.6;37.3
78731;SHT31;68055;51.978;5.658;2023-04-28T00:51:34;13.6;37.4
78731;SHT31;68055;51.978;5.658;2023-04-28T00:54:05;13.6;37.7
78731;SHT31;68055;51.978;5.658;2023-04-28T00:56:35;13.5;39.5
78731;SHT31;68055;51.978;5.658;2023-04-28T00:59:06;13.5;39.8
78731;SHT31;68055;51.978;5.658;2023-04-28T01:01:36;13.4;40.6
78731;SHT31;68055;51.978;5.658;2023-04-28T01:04:06;13.4;42.9
78731;SHT31;68055;51.978;5.658;2023-04-28T01:06:37;13.3;43.3
78731;SHT31;68055;51.978;5.658;2023-04-28T01:09:07;13.2;43.2
78731;SHT31;68055;51.978;5.658;2023-04-28T01:11:37;13.2;44.7
78731;SHT31;68055;51.978;5.658;2023-04-28T01:14:07;13.1;45.3
78731;SHT31;68055;51.978;5.658;2023-04-28T01:16:37;13.1;45.1
78731;SHT31;68055;51.978;5.658;2023-04-28T01:19:13;13.0;45.0
78731;SHT31;68055;51.978;5.658;2023-04-28T01:21:47;13.0;45.1
78731;SHT31;68055;51.978;5.658;2023-04-28T01:24:17;12.9;45.9
78731;SHT31;68055;51.978;5.658;2023-04-28T01:26:47;12.9;45.7
78731;SHT31;68055;51.978;5.658;2023-04-28T01:29:17;12.8;46.5
78731;SHT31;68055;51.978;5.658;2023-04-28T01:31:46;12.8;46.0
78731;SHT31;68055;51.978;5.658;2023-04-28T01:34:16;12.8;45.4
78731;SHT31;68055;51.978;5.658;2023-04-28T01:36:46;12.8;45.9
78731;SHT31;68055;51.978;5.658;2023-04-28T01:39:15;12.8;46.2
78731;SHT31;68055;51.978;5.658;2023-04-28T01:41:45;12.8;47.0
78731;SHT31;68055;51.978;5.658;2023-04-28T01:44:15;12.8;45.5
78731;SHT31;68055;51.978;5.658;2023-04-28T01:46:45;12.8;46.0
78731;SHT31;68055;51.978;5.658;2023-04-28T01:49:14;12.8;45.8
78731;SHT31;68055;51.978;5.658;2023-04-28T01:51:44;12.8;45.8
78731;SHT31;68055;51.978;5.658;2023-04-28T01:54:16;12.7;45.9
78731;SHT31;68055;51.978;5.658;2023-04-28T01:56:45;12.7;44.6
78731;SHT31;68055;51.978;5.658;2023-04-28T01:59:15;12.7;45.4
78731;SHT31;68055;51.978;5.658;2023-04-28T02:01:45;12.6;45.0
78731;SHT31;68055;51.978;5.658;2023-04-28T02:04:15;12.6;45.4
78731;SHT31;68055;51.978;5.658;2023-04-28T02:06:44;12.6;45.4
78731;SHT31;68055;51.978;5.658;2023-04-28T02:09:14;12.6;45.3
78731;SHT31;68055;51.978;5.658;2023-04-28T02:11:44;12.5;45.3
78731;SHT31;68055;51.978;5.658;2023-04-28T02:14:13;12.5;45.1
78731;SHT31;68055;51.978;5.658;2023-04-28T02:16:43;12.5;45.6
78731;SHT31;68055;51.978;5.658;2023-04-28T02:19:14;12.5;45.2
78731;SHT31;68055;51.978;5.658;2023-04-28T02:21:43;12.5;45.2
78731;SHT31;68055;51.978;5.658;2023-04-28T02:24:13;12.5;45.2
78731;SHT31;68055;51.978;5.658;2023-04-28T02:26:43;12.5;45.8
78731;SHT31;68055;51.978;5.658;2023-04-28T02:29:12;12.5;45.3
78731;SHT31;68055;51.978;5.658;2023-04-28T02:31:42;12.6;45.4
78731;SHT31;68055;51.978;5.658;2023-04-28T02:34:13;12.6;45.0
78731;SHT31;68055;51.978;5.658;2023-04-28T02:36:43;12.6;45.1
78731;SHT31;68055;51.978;5.658;2023-04-28T02:39:12;12.6;45.3
78731;SHT31;68055;51.978;5.658;2023-04-28T02:41:42;12.6;45.0
78731;SHT31;68055;51.978;5.658;2023-04-28T02:44:12;12.6;44.6
78731;SHT31;68055;51.978;5.658;2023-04-28T02:46:42;12.7;44.9
78731;SHT31;68055;51.978;5.658;2023-04-28T02:49:11;12.7;44.6
78731;SHT31;68055;51.978;5.658;2023-04-28T02:51:41;12.7;45.0
78731;SHT31;68055;51.978;5.658;2023-04-28T02:54:10;12.7;44.6
78731;SHT31;68055;51.978;5.658;2023-04-28T02:56:40;12.8;44.6
78731;SHT31;68055;51.978;5.658;2023-04-28T02:59:12;12.8;44.4
78731;SHT31;68055;51.978;5.658;2023-04-28T03:01:41;12.8;44.9
78731;SHT31;68055;51.978;5.658;2023-04-28T03:04:11;12.8;44.1
78731;SHT31;68055;51.978;5.658;2023-04-28T03:06:41;12.8;44.6
78731;SHT31;68055;51.978;5.658;2023-04-28T03:09:11;12.8;44.8
78731;SHT31;68055;51.978;5.658;2023-04-28T03:11:41;12.8;44.4
78731;SHT31;68055;51.978;5.658;2023-04-28T03:14:10;12.8;44.9
78731;SHT31;68055;51.978;5.658;2023-04-28T03:16:40;12.9;44.4
78731;SHT31;68055;51.978;5.658;2023-04-28T03:19:10;12.9;44.3
78731;SHT31;68055;51.978;5.658;2023-04-28T03:21:39;12.9;44.3
78731;SHT31;68055;51.978;5.658;2023-04-28T03:24:09;12.9;44.2
78731;SHT31;68055;51.978;5.658;2023-04-28T03:26:38;12.9;44.5
78731;SHT31;68055;51.978;5.658;2023-04-28T03:29:08;12.9;44.4
78731;SHT31;68055;51.978;5.658;2023-04-28T03:31:38;12.9;44.1
78731;SHT31;68055;51.978;5.658;2023-04-28T03:34:08;12.9;44.9
78731;SHT31;68055;51.978;5.658;2023-04-28T03:36:37;12.9;45.0
78731;SHT31;68055;51.978;5.658;2023-04-28T03:39:07;12.9;45.2
78731;SHT31;68055;51.978;5.658;2023-04-28T03:41:37;12.9;45.0
78731;SHT31;68055;51.978;5.658;2023-04-28T03:44:07;12.9;44.5
78731;SHT31;68055;51.978;5.658;2023-04-28T03:46:38;12.9;44.3
78731;SHT31;68055;51.978;5.658;2023-04-28T03:49:08;12.9;44.8
78731;SHT31;68055;51.978;5.658;2023-04-28T03:51:38;12.9;45.0
78731;SHT31;68055;51.978;5.658;2023-04-28T03:54:08;12.9;45.1
78731;SHT31;68055;51.978;5.658;2023-04-28T03:56:38;12.9;45.1
78731;SHT31;68055;51.978;5.658;2023-04-28T03:59:07;12.9;45.1
78731;SHT31;68055;51.978;5.658;2023-04-28T04:01:41;12.9;45.0
78731;SHT31;68055;51.978;5.658;2023-04-28T04:04:12;13.0;45.4
78731;SHT31;68055;51.978;5.658;2023-04-28T04:06:42;13.0;45.5
78731;SHT31;68055;51.978;5.658;2023-04-28T04:09:12;13.0;45.9
78731;SHT31;68055;51.978;5.658;2023-04-28T04:11:43;13.0;45.4
78731;SHT31;68055;51.978;5.658;2023-04-28T04:14:13;13.0;45.7
78731;SHT31;68055;51.978;5.658;2023-04-28T04:16:44;13.0;46.0
78731;SHT31;68055;51.978;5.658;2023-04-28T04:19:14;13.0;46.3
78731;SHT31;68055;51.978;5.658;2023-04-28T04:21:44;13.0;46.6
78731;SHT31;68055;51.978;5.658;2023-04-28T04:24:14;13.0;46.2
78731;SHT31;68055;51.978;5.658;2023-04-28T04:26:44;12.9;46.8
78731;SHT31;68055;51.978;5.658;2023-04-28T04:29:13;12.9;46.9
78731;SHT31;68055;51.978;5.658;2023-04-28T04:31:43;12.9;46.8
78731;SHT31;68055;51.978;5.658;2023-04-28T04:34:13;12.9;47.2
78731;SHT31;68055;51.978;5.658;2023-04-28T04:36:43;12.9;47.6
78731;SHT31;68055;51.978;5.658;2023-04-28T04:39:12;13.0;47.7
78731;SHT31;68055;51.978;5.658;2023-04-28T04:41:42;13.0;48.3
78731;SHT31;68055;51.978;5.658;2023-04-28T04:44:12;13.1;48.3
78731;SHT31;68055;51.978;5.658;2023-04-28T04:46:42;13.1;47.9
78731;SHT31;68055;51.978;5.658;2023-04-28T04:49:14;13.2;48.3
78731;SHT31;68055;51.978;5.658;2023-04-28T04:51:44;13.2;48.0
78731;SHT31;68055;51.978;5.658;2023-04-28T04:54:13;13.2;48.3
78731;SHT31;68055;51.978;5.658;2023-04-28T04:56:43;13.2;48.2
78731;SHT31;68055;51.978;5.658;2023-04-28T04:59:13;13.2;48.8
78731;SHT31;68055;51.978;5.658;2023-04-28T05:01:43;13.2;48.9
78731;SHT31;68055;51.978;5.658;2023-04-28T05:04:14;13.1;49.0
78731;SHT31;68055;51.978;5.658;2023-04-28T05:06:44;13.1;49.3
78731;SHT31;68055;51.978;5.658;2023-04-28T05:09:13;13.1;49.0
78731;SHT31;68055;51.978;5.658;2023-04-28T05:11:44;13.1;49.5
78731;SHT31;68055;51.978;5.658;2023-04-28T05:14:14;13.1;49.4
78731;SHT31;68055;51.978;5.658;2023-04-28T05:16:44;13.1;49.8
78731;SHT31;68055;51.978;5.658;2023-04-28T05:19:16;13.1;49.5
78731;SHT31;68055;51.978;5.658;2023-04-28T05:21:45;13.1;49.8
78731;SHT31;68055;51.978;5.658;2023-04-28T05:24:16;13.1;50.1
78731;SHT31;68055;51.978;5.658;2023-04-28T05:26:48;13.1;50.2
78731;SHT31;68055;51.978;5.658;2023-04-28T05:29:20;13.1;50.8
78731;SHT31;68055;51.978;5.658;2023-04-28T05:31:50;13.1;51.0
78731;SHT31;68055;51.978;5.658;2023-04-28T05:34:19;13.1;51.5
78731;SHT31;68055;51.978;5.658;2023-04-28T05:36:50;13.1;51.7
78731;SHT31;68055;51.978;5.658;2023-04-28T05:39:20;13.1;51.8
78731;SHT31;68055;51.978;5.658;2023-04-28T05:41:50;13.1;52.0
78731;SHT31;68055;51.978;5.658;2023-04-28T05:44:19;13.1;52.0
78731;SHT31;68055;51.978;5.658;2023-04-28T05:46:49;13.1;52.0
78731;SHT31;68055;51.978;5.658;2023-04-28T05:49:19;13.1;52.1
78731;SHT31;68055;51.978;5.658;2023-04-28T05:51:48;13.1;52.4
78731;SHT31;68055;51.978;5.658;2023-04-28T05:54:18;13.1;52.5
78731;SHT31;68055;51.978;5.658;2023-04-28T05:56:48;13.1;53.7
78731;SHT31;68055;51.978;5.658;2023-04-28T05:59:17;13.1;54.7
78731;SHT31;68055;51.978;5.658;2023-04-28T06:01:47;13.1;56.6
78731;SHT31;68055;51.978;5.658;2023-04-28T06:04:17;13.0;58.2
78731;SHT31;68055;51.978;5.658;2023-04-28T06:06:47;12.9;58.9
78731;SHT31;68055;51.978;5.658;2023-04-28T06:09:16;12.9;59.6
78731;SHT31;68055;51.978;5.658;2023-04-28T06:11:46;12.8;59.9
78731;SHT31;68055;51.978;5.658;2023-04-28T06:14:16;12.8;61.3
78731;SHT31;68055;51.978;5.658;2023-04-28T06:16:45;12.8;61.5
78731;SHT31;68055;51.978;5.658;2023-04-28T06:19:15;12.7;62.1
78731;SHT31;68055;51.978;5.658;2023-04-28T06:21:47;12.7;62.5
78731;SHT31;68055;51.978;5.658;2023-04-28T06:24:19;12.7;63.6
78731;SHT31;68055;51.978;5.658;2023-04-28T06:26:49;12.7;63.8
78731;SHT31;68055;51.978;5.658;2023-04-28T06:29:19;12.6;64.6
78731;SHT31;68055;51.978;5.658;2023-04-28T06:31:50;12.6;64.2
78731;SHT31;68055;51.978;5.658;2023-04-28T06:34:26;12.6;65.2
78731;SHT31;68055;51.978;5.658;2023-04-28T06:36:57;12.6;65.5
78731;SHT31;68055;51.978;5.658;2023-04-28T06:39:27;12.6;65.8
78731;SHT31;68055;51.978;5.658;2023-04-28T06:41:57;12.6;65.1
78731;SHT31;68055;51.978;5.658;2023-04-28T06:44:28;12.6;66.2
78731;SHT31;68055;51.978;5.658;2023-04-28T06:46:58;12.7;67.0
78731;SHT31;68055;51.978;5.658;2023-04-28T06:49:28;12.7;66.4
78731;SHT31;68055;51.978;5.658;2023-04-28T06:51:59;12.8;67.2
78731;SHT31;68055;51.978;5.658;2023-04-28T06:54:29;12.8;67.2
78731;SHT31;68055;51.978;5.658;2023-04-28T06:56:59;12.9;67.1
78731;SHT31;68055;51.978;5.658;2023-04-28T06:59:29;12.9;67.2
78731;SHT31;68055;51.978;5.658;2023-04-28T07:01:59;13.0;67.2
78731;SHT31;68055;51.978;5.658;2023-04-28T07:04:28;13.0;67.2
78731;SHT31;68055;51.978;5.658;2023-04-28T07:06:58;13.1;67.1
78731;SHT31;68055;51.978;5.658;2023-04-28T07:09:28;13.2;67.1
78731;SHT31;68055;51.978;5.658;2023-04-28T07:11:57;13.2;67.5
78731;SHT31;68055;51.978;5.658;2023-04-28T07:14:27;13.3;67.3
78731;SHT31;68055;51.978;5.658;2023-04-28T07:16:57;13.4;66.9
78731;SHT31;68055;51.978;5.658;2023-04-28T07:19:27;13.4;66.8
78731;SHT31;68055;51.978;5.658;2023-04-28T07:21:57;13.5;67.2
78731;SHT31;68055;51.978;5.658;2023-04-28T07:24:27;13.6;67.2
78731;SHT31;68055;51.978;5.658;2023-04-28T07:26:57;13.6;66.7
78731;SHT31;68055;51.978;5.658;2023-04-28T07:29:27;13.7;67.5
78731;SHT31;68055;51.978;5.658;2023-04-28T07:32:01;13.7;67.0
78731;SHT31;68055;51.978;5.658;2023-04-28T07:34:34;13.8;67.3
78731;SHT31;68055;51.978;5.658;2023-04-28T07:37:04;13.9;67.2
78731;SHT31;68055;51.978;5.658;2023-04-28T07:39:34;13.9;66.7
78731;SHT31;68055;51.978;5.658;2023-04-28T07:42:05;14.0;66.7
78731;SHT31;68055;51.978;5.658;2023-04-28T07:44:35;14.0;67.3
78731;SHT31;68055;51.978;5.658;2023-04-28T07:47:05;14.1;66.6
78731;SHT31;68055;51.978;5.658;2023-04-28T07:49:36;14.2;67.3
78731;SHT31;68055;51.978;5.658;2023-04-28T07:52:06;14.3;66.5
78731;SHT31;68055;51.978;5.658;2023-04-28T07:54:38;14.4;66.7
78731;SHT31;68055;51.978;5.658;2023-04-28T07:57:07;14.5;66.3
78731;SHT31;68055;51.978;5.658;2023-04-28T07:59:37;14.6;66.2
78731;SHT31;68055;51.978;5.658;2023-04-28T08:02:09;14.6;66.4
78731;SHT31;68055;51.978;5.658;2023-04-28T08:04:41;14.7;66.6
78731;SHT31;68055;51.978;5.658;2023-04-28T08:07:11;14.7;66.7
78731;SHT31;68055;51.978;5.658;2023-04-28T08:09:43;14.7;66.7
78731;SHT31;68055;51.978;5.658;2023-04-28T08:12:14;14.8;67.0
78731;SHT31;68055;51.978;5.658;2023-04-28T08:14:44;14.9;67.2
78731;SHT31;68055;51.978;5.658;2023-04-28T08:17:16;14.9;67.0
78731;SHT31;68055;51.978;5.658;2023-04-28T08:19:46;15.0;67.1
78731;SHT31;68055;51.978;5.658;2023-04-28T08:22:16;15.0;67.5
78731;SHT31;68055;51.978;5.658;2023-04-28T08:24:46;15.1;67.9
78731;SHT31;68055;51.978;5.658;2023-04-28T08:27:16;15.2;67.1
78731;SHT31;68055;51.978;5.658;2023-04-28T08:29:45;15.2;67.2
78731;SHT31;68055;51.978;5.658;2023-04-28T08:32:15;15.3;66.1
78731;SHT31;68055;51.978;5.658;2023-04-28T08:34:45;15.4;65.3
78731;SHT31;68055;51.978;5.658;2023-04-28T08:37:15;15.5;65.4
78731;SHT31;68055;51.978;5.658;2023-04-28T08:39:45;15.5;65.7
78731;SHT31;68055;51.978;5.658;2023-04-28T08:42:16;15.6;64.8
78731;SHT31;68055;51.978;5.658;2023-04-28T08:44:48;15.6;65.1
78731;SHT31;68055;51.978;5.658;2023-04-28T08:47:34;15.7;65.3
78731;SHT31;68055;51.978;5.658;2023-04-28T08:50:06;15.7;65.5
78731;SHT31;68055;51.978;5.658;2023-04-28T08:52:36;15.7;64.9
78731;SHT31;68055;51.978;5.658;2023-04-28T08:55:08;15.8;65.9
78731;SHT31;68055;51.978;5.658;2023-04-28T08:57:42;15.8;67.0
78731;SHT31;68055;51.978;5.658;2023-04-28T09:00:15;15.8;67.4
78731;SHT31;68055;51.978;5.658;2023-04-28T09:02:45;15.9;67.0
78731;SHT31;68055;51.978;5.658;2023-04-28T09:05:14;15.9;67.3
78731;SHT31;68055;51.978;5.658;2023-04-28T09:07:46;16.0;66.7
78731;SHT31;68055;51.978;5.658;2023-04-28T09:10:20;16.1;66.6
78731;SHT31;68055;51.978;5.658;2023-04-28T09:12:53;16.1;66.3
78731;SHT31;68055;51.978;5.658;2023-04-28T09:15:29;16.2;65.3
78731;SHT31;68055;51.978;5.658;2023-04-28T09:17:59;16.2;65.2
78731;SHT31;68055;51.978;5.658;2023-04-28T09:20:31;16.3;64.8
78731;SHT31;68055;51.978;5.658;2023-04-28T09:23:17;16.3;65.1
78731;SHT31;68055;51.978;5.658;2023-04-28T09:26:01;16.3;65.2
78731;SHT31;68055;51.978;5.658;2023-04-28T09:28:33;16.3;65.4
78731;SHT31;68055;51.978;5.658;2023-04-28T09:31:03;16.4;65.6
78731;SHT31;68055;51.978;5.658;2023-04-28T09:33:32;16.4;66.0
78731;SHT31;68055;51.978;5.658;2023-04-28T09:36:03;16.4;65.6
78731;SHT31;68055;51.978;5.658;2023-04-28T09:38:43;16.4;64.6
78731;SHT31;68055;51.978;5.658;2023-04-28T09:41:13;16.5;65.0
78731;SHT31;68055;51.978;5.658;2023-04-28T09:43:45;16.5;65.4
78731;SHT31;68055;51.978;5.658;2023-04-28T09:46:27;16.5;65.4
78731;SHT31;68055;51.978;5.658;2023-04-28T09:49:00;16.5;65.9
78731;SHT31;68055;51.978;5.658;2023-04-28T09:51:30;16.5;66.1
78731;SHT31;68055;51.978;5.658;2023-04-28T09:54:01;16.5;66.1
78731;SHT31;68055;51.978;5.658;2023-04-28T09:56:33;16.5;66.4
78731;SHT31;68055;51.978;5.658;2023-04-28T09:59:04;16.5;66.9
78731;SHT31;68055;51.978;5.658;2023-04-28T10:01:37;16.5;67.0
78731;SHT31;68055;51.978;5.658;2023-04-28T10:04:10;16.5;67.0
78731;SHT31;68055;51.978;5.658;2023-04-28T10:06:41;16.5;67.3
78731;SHT31;68055;51.978;5.658;2023-04-28T10:09:13;16.6;67.1
78731;SHT31;68055;51.978;5.658;2023-04-28T10:11:44;16.6;67.3
78731;SHT31;68055;51.978;5.658;2023-04-28T10:14:15;16.6;67.1
78731;SHT31;68055;51.978;5.658;2023-04-28T10:16:45;16.6;68.3
78731;SHT31;68055;51.978;5.658;2023-04-28T10:19:18;16.6;68.3
78731;SHT31;68055;51.978;5.658;2023-04-28T10:21:58;16.6;68.3
78731;SHT31;68055;51.978;5.658;2023-04-28T10:24:31;16.6;67.8
78731;SHT31;68055;51.978;5.658;2023-04-28T10:27:08;16.6;68.4
78731;SHT31;68055;51.978;5.658;2023-04-28T10:29:38;16.7;68.8
78731;SHT31;68055;51.978;5.658;2023-04-28T10:33:23;16.7;68.6
78731;SHT31;68055;51.978;5.658;2023-04-28T10:35:56;16.7;68.9
78731;SHT31;68055;51.978;5.658;2023-04-28T10:38:26;16.7;69.4
78731;SHT31;68055;51.978;5.658;2023-04-28T10:40:55;16.7;69.2
78731;SHT31;68055;51.978;5.658;2023-04-28T10:43:36;16.7;69.3
78731;SHT31;68055;51.978;5.658;2023-04-28T10:46:08;16.8;68.6
78731;SHT31;68055;51.978;5.658;2023-04-28T10:48:54;16.8;69.6
78731;SHT31;68055;51.978;5.658;2023-04-28T10:51:31;16.8;70.4
78731;SHT31;68055;51.978;5.658;2023-04-28T10:54:13;16.8;70.4
78731;SHT31;68055;51.978;5.658;2023-04-28T10:57:31;16.9;70.2
78731;SHT31;68055;51.978;5.658;2023-04-28T11:00:27;16.9;70.0
78731;SHT31;68055;51.978;5.658;2023-04-28T11:02:57;16.9;70.2
78731;SHT31;68055;51.978;5.658;2023-04-28T11:05:27;16.9;70.1
78731;SHT31;68055;51.978;5.658;2023-04-28T11:10:14;16.9;69.8
78731;SHT31;68055;51.978;5.658;2023-04-28T11:13:26;16.9;70.6
78731;SHT31;68055;51.978;5.658;2023-04-28T11:16:04;16.9;70.6
78731;SHT31;68055;51.978;5.658;2023-04-28T11:19:00;16.9;70.1
78731;SHT31;68055;51.978;5.658;2023-04-28T11:21:33;16.9;71.0
78731;SHT31;68055;51.978;5.658;2023-04-28T11:24:07;16.9;70.0
78731;SHT31;68055;51.978;5.658;2023-04-28T11:26:39;16.9;70.8
78731;SHT31;68055;51.978;5.658;2023-04-28T11:29:10;16.9;70.2
78731;SHT31;68055;51.978;5.658;2023-04-28T11:31:51;16.9;70.1
78731;SHT31;68055;51.978;5.658;2023-04-28T11:34:21;16.9;70.3
78731;SHT31;68055;51.978;5.658;2023-04-28T11:36:52;16.9;70.3
78731;SHT31;68055;51.978;5.658;2023-04-28T11:39:28;16.9;70.2
78731;SHT31;68055;51.978;5.658;2023-04-28T11:41:59;17.0;70.6
78731;SHT31;68055;51.978;5.658;2023-04-28T11:44:30;17.0;70.7
78731;SHT31;68055;51.978;5.658;2023-04-28T11:47:01;17.0;70.5
78731;SHT31;68055;51.978;5.658;2023-04-28T11:49:44;17.0;70.2
78731;SHT31;68055;51.978;5.658;2023-04-28T11:52:14;17.0;70.4
78731;SHT31;68055;51.978;5.658;2023-04-28T11:54:44;17.1;70.6
78731;SHT31;68055;51.978;5.658;2023-04-28T11:57:21;17.1;70.7
78731;SHT31;68055;51.978;5.658;2023-04-28T11:59:51;17.1;70.4
78731;SHT31;68055;51.978;5.658;2023-04-28T12:02:27;17.2;70.2
78731;SHT31;68055;51.978;5.658;2023-04-28T12:05:06;17.2;69.7
78731;SHT31;68055;51.978;5.658;2023-04-28T12:07:42;17.2;69.9
78731;SHT31;68055;51.978;5.658;2023-04-28T12:10:13;17.2;68.8
78731;SHT31;68055;51.978;5.658;2023-04-28T12:12:45;17.2;69.0
78731;SHT31;68055;51.978;5.658;2023-04-28T12:15:17;17.2;69.1
78731;SHT31;68055;51.978;5.658;2023-04-28T12:17:47;17.2;69.0
78731;SHT31;68055;51.978;5.658;2023-04-28T12:20:35;17.1;68.8
78731;SHT31;68055;51.978;5.658;2023-04-28T12:23:05;17.1;68.9
78731;SHT31;68055;51.978;5.658;2023-04-28T12:25:44;17.1;68.9
78731;SHT31;68055;51.978;5.658;2023-04-28T12:28:14;17.1;69.6
78731;SHT31;68055;51.978;5.658;2023-04-28T12:30:44;17.1;69.5
78731;SHT31;68055;51.978;5.658;2023-04-28T12:33:24;17.1;69.5
78731;SHT31;68055;51.978;5.658;2023-04-28T12:35:56;17.0;69.3
78731;SHT31;68055;51.978;5.658;2023-04-28T12:38:26;17.0;69.3
78731;SHT31;68055;51.978;5.658;2023-04-28T12:40:56;17.0;69.5
78731;SHT31;68055;51.978;5.658;2023-04-28T12:43:26;17.0;69.8
78731;SHT31;68055;51.978;5.658;2023-04-28T12:45:56;17.0;69.9
78731;SHT31;68055;51.978;5.658;2023-04-28T12:48:27;17.0;69.3
78731;SHT31;68055;51.978;5.658;2023-04-28T12:50:58;17.0;69.8
78731;SHT31;68055;51.978;5.658;2023-04-28T12:53:27;17.0;69.4
78731;SHT31;68055;51.978;5.658;2023-04-28T12:55:57;17.0;69.4
78731;SHT31;68055;51.978;5.658;2023-04-28T12:58:27;17.0;69.8
78731;SHT31;68055;51.978;5.658;2023-04-28T13:00:56;17.0;70.7
78731;SHT31;68055;51.978;5.658;2023-04-28T13:03:26;17.1;70.5
78731;SHT31;68055;51.978;5.658;2023-04-28T13:05:56;17.1;70.4
78731;SHT31;68055;51.978;5.658;2023-04-28T13:08:28;17.2;69.7
78731;SHT31;68055;51.978;5.658;2023-04-28T13:11:00;17.3;69.2
78731;SHT31;68055;51.978;5.658;2023-04-28T13:13:31;17.3;69.2
78731;SHT31;68055;51.978;5.658;2023-04-28T13:16:01;17.4;68.7
78731;SHT31;68055;51.978;5.658;2023-04-28T13:18:31;17.4;68.9
78731;SHT31;68055;51.978;5.658;2023-04-28T13:21:00;17.5;68.6
78731;SHT31;68055;51.978;5.658;2023-04-28T13:23:32;17.5;68.3
78731;SHT31;68055;51.978;5.658;2023-04-28T13:26:01;17.6;68.3
78731;SHT31;68055;51.978;5.658;2023-04-28T13:28:32;17.6;68.2
78731;SHT31;68055;51.978;5.658;2023-04-28T13:31:02;17.6;67.7
78731;SHT31;68055;51.978;5.658;2023-04-28T13:33:32;17.7;67.5
78731;SHT31;68055;51.978;5.658;2023-04-28T13:36:02;17.7;67.8
78731;SHT31;68055;51.978;5.658;2023-04-28T13:38:34;17.7;67.7
78731;SHT31;68055;51.978;5.658;2023-04-28T13:41:04;17.8;67.6
78731;SHT31;68055;51.978;5.658;2023-04-28T13:43:34;17.8;67.5
78731;SHT31;68055;51.978;5.658;2023-04-28T13:46:05;17.8;67.9
78731;SHT31;68055;51.978;5.658;2023-04-28T13:48:36;17.8;67.8
78731;SHT31;68055;51.978;5.658;2023-04-28T13:51:06;17.8;67.7
78731;SHT31;68055;51.978;5.658;2023-04-28T13:53:37;17.8;67.8
78731;SHT31;68055;51.978;5.658;2023-04-28T13:56:07;17.8;68.1
78731;SHT31;68055;51.978;5.658;2023-04-28T13:58:37;17.9;67.7
78731;SHT31;68055;51.978;5.658;2023-04-28T14:01:07;17.9;67.8
78731;SHT31;68055;51.978;5.658;2023-04-28T14:03:36;17.9;67.7
78731;SHT31;68055;51.978;5.658;2023-04-28T14:06:06;17.9;67.2
78731;SHT31;68055;51.978;5.658;2023-04-28T14:08:36;18.0;67.2
78731;SHT31;68055;51.978;5.658;2023-04-28T14:11:06;18.0;67.4
78731;SHT31;68055;51.978;5.658;2023-04-28T14:13:36;18.0;67.8
78731;SHT31;68055;51.978;5.658;2023-04-28T14:16:06;18.0;67.3
78731;SHT31;68055;51.978;5.658;2023-04-28T14:18:36;18.1;67.4
78731;SHT31;68055;51.978;5.658;2023-04-28T14:21:07;18.1;67.4
78731;SHT31;68055;51.978;5.658;2023-04-28T14:23:37;18.1;67.4
78731;SHT31;68055;51.978;5.658;2023-04-28T14:26:07;18.2;67.0
78731;SHT31;68055;51.978;5.658;2023-04-28T14:28:37;18.2;66.6
78731;SHT31;68055;51.978;5.658;2023-04-28T14:31:07;18.2;66.8
78731;SHT31;68055;51.978;5.658;2023-04-28T14:33:37;18.1;66.6
78731;SHT31;68055;51.978;5.658;2023-04-28T14:36:07;18.1;67.2
78731;SHT31;68055;51.978;5.658;2023-04-28T14:38:37;18.1;66.7
78731;SHT31;68055;51.978;5.658;2023-04-28T14:41:06;18.1;67.0
78731;SHT31;68055;51.978;5.658;2023-04-28T14:43:36;18.1;67.2
78731;SHT31;68055;51.978;5.658;2023-04-28T14:46:08;18.1;67.6
78731;SHT31;68055;51.978;5.658;2023-04-28T14:48:41;18.0;67.8
78731;SHT31;68055;51.978;5.658;2023-04-28T14:51:10;18.0;67.9
78731;SHT31;68055;51.978;5.658;2023-04-28T14:53:41;18.0;67.9
78731;SHT31;68055;51.978;5.658;2023-04-28T14:56:11;17.9;68.6
78731;SHT31;68055;51.978;5.658;2023-04-28T14:58:41;17.9;69.2
78731;SHT31;68055;51.978;5.658;2023-04-28T15:01:10;17.9;68.7
78731;SHT31;68055;51.978;5.658;2023-04-28T15:03:42;17.9;69.3
78731;SHT31;68055;51.978;5.658;2023-04-28T15:06:11;17.9;69.3
78731;SHT31;68055;51.978;5.658;2023-04-28T15:08:41;17.9;68.6
78731;SHT31;68055;51.978;5.658;2023-04-28T15:11:11;17.9;68.5
78731;SHT31;68055;51.978;5.658;2023-04-28T15:13:42;17.9;68.0
78731;SHT31;68055;51.978;5.658;2023-04-28T15:16:12;17.9;67.3
78731;SHT31;68055;51.978;5.658;2023-04-28T15:18:42;17.9;67.5
78731;SHT31;68055;51.978;5.658;2023-04-28T15:21:14;17.9;67.7
78731;SHT31;68055;51.978;5.658;2023-04-28T15:23:44;17.9;67.7
78731;SHT31;68055;51.978;5.658;2023-04-28T15:26:13;17.9;67.3
78731;SHT31;68055;51.978;5.658;2023-04-28T15:28:43;17.9;67.3
78731;SHT31;68055;51.978;5.658;2023-04-28T15:31:12;17.8;67.7
78731;SHT31;68055;51.978;5.658;2023-04-28T15:33:42;17.8;67.7
78731;SHT31;68055;51.978;5.658;2023-04-28T15:36:12;17.7;68.1
78731;SHT31;68055;51.978;5.658;2023-04-28T15:38:41;17.7;68.2
78731;SHT31;68055;51.978;5.658;2023-04-28T15:41:12;17.6;68.6
78731;SHT31;68055;51.978;5.658;2023-04-28T15:43:42;17.6;68.8
78731;SHT31;68055;51.978;5.658;2023-04-28T15:46:12;17.5;69.1
78731;SHT31;68055;51.978;5.658;2023-04-28T15:48:43;17.5;69.3
78731;SHT31;68055;51.978;5.658;2023-04-28T15:51:13;17.5;69.4
78731;SHT31;68055;51.978;5.658;2023-04-28T15:53:43;17.5;69.6
78731;SHT31;68055;51.978;5.658;2023-04-28T15:56:13;17.5;69.8
78731;SHT31;68055;51.978;5.658;2023-04-28T15:58:43;17.5;69.2
78731;SHT31;68055;51.978;5.658;2023-04-28T16:01:13;17.5;69.0
78731;SHT31;68055;51.978;5.658;2023-04-28T16:03:43;17.5;69.2
78731;SHT31;68055;51.978;5.658;2023-04-28T16:06:12;17.4;68.7
78731;SHT31;68055;51.978;5.658;2023-04-28T16:08:42;17.4;69.4
78731;SHT31;68055;51.978;5.658;2023-04-28T16:11:12;17.4;69.5
78731;SHT31;68055;51.978;5.658;2023-04-28T16:13:45;17.4;69.7
78731;SHT31;68055;51.978;5.658;2023-04-28T16:16:16;17.4;69.0
78731;SHT31;68055;51.978;5.658;2023-04-28T16:18:45;17.4;69.3
78731;SHT31;68055;51.978;5.658;2023-04-28T16:21:16;17.4;69.3
78731;SHT31;68055;51.978;5.658;2023-04-28T16:23:45;17.3;69.8
78731;SHT31;68055;51.978;5.658;2023-04-28T16:26:15;17.3;69.7
78731;SHT31;68055;51.978;5.658;2023-04-28T16:28:44;17.3;68.1
78731;SHT31;68055;51.978;5.658;2023-04-28T16:31:16;17.3;68.8